»·PEaware :: GSA572 KSLC-KGJT

GSA572 :: KSLC-KGJT

FLIGHT INFORMATION

Flight Status: Arrived
Operator:
Global Sim Alliance
More flights by this operator :: More flights under this callsign
Pilot: Anonymous 8799 (8799)
Aircraft: BOEING 737-800
(B738)
More flights by this aircraft type
Origin: KSLC Salt Lake City Intl
United States
Destination: KGJT Walker
United States
More flights between these airports :: More routes between these airports
Route: LEETZ6 MTU JNC
File this flight plan on PilotEdge
Remarks:
Altitude:
(Current/Filed)
31,000ft
Speed:
(Current/Filed)
450kts
Departed: 30-Sep-17 09:45 AM
Arrived: 30-Sep-17 10:29 AM
Distance/Time
Traveled:
187nm/0:44
Distance/Time
To Go:
Arrived

Flight Plot

Page will automatically refresh every two minutes.

Flight plan parsing failed; only flown route is shown


Map Options




Map Legend


Flown Route
Filed Route
Departure Airport
Arrival Airport
Navaid (VOR, NDB)
Fix

Horizontal Profiles

Position Reports

Time Latitude Longitude Heading Altitude Ground
Speed
30-Sep-17 09:17 40.789022 -111.981904 135 4235ft 0kts
30-Sep-17 09:18 40.789022 -111.981904 135 4235ft 0kts
30-Sep-17 09:19 40.789022 -111.981904 135 4235ft 0kts
30-Sep-17 09:20 40.789022 -111.981904 135 4235ft 0kts
30-Sep-17 09:21 40.789022 -111.981904 135 4235ft 0kts
30-Sep-17 09:22 40.789022 -111.981904 135 4235ft 0kts
30-Sep-17 09:23 40.789022 -111.981904 135 4235ft 0kts
30-Sep-17 09:24 40.789022 -111.981904 135 4235ft 0kts
30-Sep-17 09:25 40.789022 -111.981904 135 4235ft 0kts
30-Sep-17 09:26 40.789022 -111.981904 135 4235ft 0kts
30-Sep-17 09:27 40.789022 -111.981904 135 4235ft 0kts
30-Sep-17 09:28 40.789022 -111.981904 135 4235ft 0kts
30-Sep-17 09:29 40.789022 -111.981904 134 4235ft 0kts
30-Sep-17 09:30 40.789022 -111.981904 135 4235ft 0kts
30-Sep-17 09:31 40.789022 -111.981904 135 4235ft 0kts
30-Sep-17 09:32 40.789066 -111.982002 108 4235ft 2kts
30-Sep-17 09:33 40.789209 -111.982253 141 4235ft 1kts
30-Sep-17 09:34 40.789330 -111.982380 89 4235ft 1kts
30-Sep-17 09:35 40.789329 -111.982339 94 4235ft 0kts
30-Sep-17 09:36 40.789329 -111.982339 94 4235ft 0kts
30-Sep-17 09:37 40.789329 -111.982339 94 4235ft 0kts
30-Sep-17 09:38 40.789329 -111.982339 94 4235ft 0kts
30-Sep-17 09:39 40.789329 -111.982339 94 4235ft 0kts
30-Sep-17 09:40 40.789527 -111.982156 21 4235ft 5kts
30-Sep-17 09:41 40.790183 -111.979222 79 4235ft 4kts
30-Sep-17 09:42 40.790229 -111.978706 88 4235ft 2kts
30-Sep-17 09:43 40.792175 -111.977356 356 4235ft 15kts
30-Sep-17 09:44 40.797186 -111.977932 354 4235ft 20kts
30-Sep-17 09:45 40.803436 -111.978310 6 4235ft 22kts
30-Sep-17 09:46 40.806924 -111.978601 7 4235ft 0kts
30-Sep-17 09:47 40.806924 -111.978601 7 4235ft 0kts
30-Sep-17 09:48 40.807267 -111.978382 52 4235ft 8kts
30-Sep-17 09:49 40.790436 -111.974981 174 4461ft 179kts
30-Sep-17 09:50 40.747721 -112.020259 259 7357ft 266kts
30-Sep-17 09:51 40.782948 -112.104424 315 9995ft 301kts
30-Sep-17 09:52 40.843252 -112.179053 314 10010ft 298kts
30-Sep-17 09:53 40.912806 -112.232951 351 10027ft 303kts
30-Sep-17 09:54 40.993566 -112.221441 39 10020ft 303kts
30-Sep-17 09:55 41.025382 -112.121360 84 11825ft 310kts
30-Sep-17 09:56 41.005363 -112.011542 111 14144ft 316kts
30-Sep-17 09:57 40.957924 -111.916323 134 16448ft 321kts
30-Sep-17 09:58 40.897290 -111.827714 135 18760ft 333kts
30-Sep-17 09:59 40.833783 -111.736277 136 21072ft 347kts
30-Sep-17 10:00 40.767681 -111.641194 132 23378ft 363kts
30-Sep-17 10:01 40.725309 -111.516514 114 25705ft 386kts
30-Sep-17 10:02 40.686431 -111.382671 113 28026ft 399kts
30-Sep-17 10:03 40.647386 -111.247277 114 30273ft 404kts
30-Sep-17 10:04 40.606989 -111.108025 114 31186ft 426kts
30-Sep-17 10:05 40.563339 -110.958000 115 31190ft 460kts
30-Sep-17 10:06 40.516376 -110.797921 116 31180ft 476kts
30-Sep-17 10:07 40.469063 -110.637569 116 31176ft 475kts
30-Sep-17 10:08 40.418208 -110.480964 129 31161ft 465kts
30-Sep-17 10:09 40.330214 -110.357681 139 31176ft 465kts
30-Sep-17 10:10 40.243299 -110.246481 140 31170ft 465kts
30-Sep-17 10:11 40.151520 -110.130082 140 30992ft 456kts
30-Sep-17 10:12 40.065791 -110.022734 141 29565ft 415kts
30-Sep-17 10:13 39.982494 -109.918978 141 28272ft 413kts
30-Sep-17 10:14 39.900705 -109.817392 140 26955ft 404kts
30-Sep-17 10:15 39.823996 -109.722450 140 25517ft 400kts
30-Sep-17 10:16 39.745842 -109.625920 140 23127ft 380kts
30-Sep-17 10:17 39.671387 -109.534475 140 20768ft 368kts
30-Sep-17 10:18 39.598617 -109.446000 140 18377ft 353kts
30-Sep-17 10:19 39.528370 -109.361486 140 15996ft 343kts
30-Sep-17 10:20 39.461690 -109.282071 140 14967ft 335kts
30-Sep-17 10:21 39.392910 -109.200361 140 14945ft 337kts
30-Sep-17 10:22 39.324517 -109.118588 140 14944ft 335kts
30-Sep-17 10:23 39.257173 -109.036908 140 14943ft 333kts
30-Sep-17 10:24 39.190677 -108.955193 140 14943ft 330kts
30-Sep-17 10:25 39.124938 -108.874302 140 13083ft 321kts
30-Sep-17 10:26 39.065907 -108.792227 120 10954ft 314kts
30-Sep-17 10:27 39.035632 -108.689833 111 8869ft 304kts
30-Sep-17 10:28 39.025861 -108.583765 106 6751ft 294kts
30-Sep-17 10:29 39.034685 -108.492075 43 5918ft 245kts
30-Sep-17 10:30 39.085523 -108.470386 358 5736ft 168kts
30-Sep-17 10:31 39.115149 -108.508428 303 4977ft 162kts
30-Sep-17 10:32 39.131975 -108.539028 302 4807ft 44kts
30-Sep-17 10:33 39.133494 -108.543629 180 4807ft 1kts
30-Sep-17 10:34 39.132064 -108.541509 126 4807ft 11kts
30-Sep-17 10:35 39.131457 -108.540365 121 4807ft 5kts
30-Sep-17 10:36 39.130826 -108.539144 125 4807ft 4kts
30-Sep-17 10:37 39.129205 -108.537784 123 4807ft 0kts
30-Sep-17 10:38 39.129067 -108.537461 118 4807ft 6kts
30-Sep-17 10:39 39.129089 -108.537511 129 4807ft 0kts

Navigation Log

Ident Type
Flight plan parsing failed, navigation log unavailable